sensor_id;sensor_type;location;lat;lon;timestamp;P1;P2;P0
76043;PMS7003;64740;34.694;33.088;2023-05-14T00:01:34;31.3;27.7;18.7
76043;PMS7003;64740;34.694;33.088;2023-05-14T00:07:04;30.5;27.9;18.3
76043;PMS7003;64740;34.694;33.088;2023-05-14T00:11:46;30.7;27.7;18.3
76043;PMS7003;64740;34.694;33.088;2023-05-14T00:16:32;28.5;25.9;17.2
76043;PMS7003;64740;34.694;33.088;2023-05-14T00:21:24;30.7;27.2;18.4
76043;PMS7003;64740;34.694;33.088;2023-05-14T00:27:04;29.8;26.9;18.2
76043;PMS7003;64740;34.694;33.088;2023-05-14T00:31:24;31.7;28.8;18.3
76043;PMS7003;64740;34.694;33.088;2023-05-14T00:36:40;31.8;28.3;18.9
76043;PMS7003;64740;34.694;33.088;2023-05-14T00:42:02;32.1;28.6;19.1
76043;PMS7003;64740;34.694;33.088;2023-05-14T00:46:32;33.9;29.4;19.3
76043;PMS7003;64740;34.694;33.088;2023-05-14T00:51:40;34.2;29.8;19.2
76043;PMS7003;64740;34.694;33.088;2023-05-14T00:56:42;30.3;26.6;17
76043;PMS7003;64740;34.694;33.088;2023-05-14T01:01:54;31.9;27.7;18.6
76043;PMS7003;64740;34.694;33.088;2023-05-14T01:06:53;30.5;27.8;18.4
76043;PMS7003;64740;34.694;33.088;2023-05-14T01:11:39;30;27.1;17.8
76043;PMS7003;64740;34.694;33.088;2023-05-14T01:17:03;28;24.8;15.9
76043;PMS7003;64740;34.694;33.088;2023-05-14T01:22:04;25.2;22.8;15.2
76043;PMS7003;64740;34.694;33.088;2023-05-14T01:26:34;23.2;20.3;13.6
76043;PMS7003;64740;34.694;33.088;2023-05-14T01:31:44;23.1;20.4;14.2
76043;PMS7003;64740;34.694;33.088;2023-05-14T01:36:50;22.8;19.8;13.8
76043;PMS7003;64740;34.694;33.088;2023-05-14T01:41:34;22.5;20.6;13.7
76043;PMS7003;64740;34.694;33.088;2023-05-14T01:46:56;21.8;19.1;13.4
76043;PMS7003;64740;34.694;33.088;2023-05-14T01:51:56;20.4;18.2;12.1
76043;PMS7003;64740;34.694;33.088;2023-05-14T01:56:24;21.6;18.9;13
76043;PMS7003;64740;34.694;33.088;2023-05-14T02:02:02;21.1;18.6;12.6
76043;PMS7003;64740;34.694;33.088;2023-05-14T02:06:32;21.2;18.9;12.9
76043;PMS7003;64740;34.694;33.088;2023-05-14T02:11:24;21.5;19.5;13.1
76043;PMS7003;64740;34.694;33.088;2023-05-14T02:16:50;21.4;18.2;13
76043;PMS7003;64740;34.694;33.088;2023-05-14T02:21:52;18.8;16.1;11.2
76043;PMS7003;64740;34.694;33.088;2023-05-14T02:26:36;18.6;17;11.8
76043;PMS7003;64740;34.694;33.088;2023-05-14T02:31:56;19;17.2;11.7
76043;PMS7003;64740;34.694;33.088;2023-05-14T02:36:52;19.3;17.1;11.7
76043;PMS7003;64740;34.694;33.088;2023-05-14T02:41:58;19.1;17.5;12.2
76043;PMS7003;64740;34.694;33.088;2023-05-14T02:46:30;19.1;17.4;12
76043;PMS7003;64740;34.694;33.088;2023-05-14T02:51:40;19.3;17.6;12.2
76043;PMS7003;64740;34.694;33.088;2023-05-14T02:56:58;18.2;16.6;11.7
76043;PMS7003;64740;34.694;33.088;2023-05-14T03:02:06;16.3;15.1;10.8
76043;PMS7003;64740;34.694;33.088;2023-05-14T03:06:24;15.6;13.9;9.8
76043;PMS7003;64740;34.694;33.088;2023-05-14T03:12:06;14.8;13.1;9.6
76043;PMS7003;64740;34.694;33.088;2023-05-14T03:16:38;14.4;12.9;9.3
76043;PMS7003;64740;34.694;33.088;2023-05-14T03:21:42;12.8;11.4;8
76043;PMS7003;64740;34.694;33.088;2023-05-14T03:26:48;15.4;13.5;9.7
76043;PMS7003;64740;34.694;33.088;2023-05-14T03:32:06;16.4;15;10.3
76043;PMS7003;64740;34.694;33.088;2023-05-14T03:36:32;15.7;13.3;9.7
76043;PMS7003;64740;34.694;33.088;2023-05-14T03:41:24;15;13.3;9.8
76043;PMS7003;64740;34.694;33.088;2023-05-14T03:47:06;16;13.9;10.4
76043;PMS7003;64740;34.694;33.088;2023-05-14T03:51:24;15.9;13.9;10.2
76043;PMS7003;64740;34.694;33.088;2023-05-14T03:56:42;16.2;14.7;10.5
76043;PMS7003;64740;34.694;33.088;2023-05-14T04:01:44;15;14.1;9.9
76043;PMS7003;64740;34.694;33.088;2023-05-14T04:07:04;17;15.4;10.2
76043;PMS7003;64740;34.694;33.088;2023-05-14T04:11:46;16.5;14.9;10.6
76043;PMS7003;64740;34.694;33.088;2023-05-14T04:16:32;15;13.9;9.9
76043;PMS7003;64740;34.694;33.088;2023-05-14T04:21:24;14.3;13.6;9.4
76043;PMS7003;64740;34.694;33.088;2023-05-14T04:26:56;16.2;14.3;10.3
76043;PMS7003;64740;34.694;33.088;2023-05-14T04:31:34;17.7;15.8;11.2
76043;PMS7003;64740;34.694;33.088;2023-05-14T04:36:48;19.5;17.1;11.8
76043;PMS7003;64740;34.694;33.088;2023-05-14T04:41:44;21.3;19.5;13.4
76043;PMS7003;64740;34.694;33.088;2023-05-14T04:46:36;22.5;20.5;14.2
76043;PMS7003;64740;34.694;33.088;2023-05-14T04:52:08;22.6;20.8;13.3
76043;PMS7003;64740;34.694;33.088;2023-05-14T04:56:46;21.8;19.1;13.1
76043;PMS7003;64740;34.694;33.088;2023-05-14T05:01:36;21.7;19.3;13.4
76043;PMS7003;64740;34.694;33.088;2023-05-14T05:07:08;21;19.7;13.4
76043;PMS7003;64740;34.694;33.088;2023-05-14T05:11:44;22.3;20.1;13.9
76043;PMS7003;64740;34.694;33.088;2023-05-14T05:16:48;22.1;21;14.3
76043;PMS7003;64740;34.694;33.088;2023-05-14T05:21:52;23.2;20.8;14.2
76043;PMS7003;64740;34.694;33.088;2023-05-14T05:27:08;24.7;21.7;14.6
76043;PMS7003;64740;34.694;33.088;2023-05-14T05:31:24;23.2;20.4;13.6
76043;PMS7003;64740;34.694;33.088;2023-05-14T05:36:58;23.5;21.6;15.2
76043;PMS7003;64740;34.694;33.088;2023-05-14T05:41:54;24;22.2;15.1
76043;PMS7003;64740;34.694;33.088;2023-05-14T05:46:58;25.8;23.5;15.3
76043;PMS7003;64740;34.694;33.088;2023-05-14T05:51:44;26.1;23;15.4
76043;PMS7003;64740;34.694;33.088;2023-05-14T05:56:36;29.2;25.3;16.9
76043;PMS7003;64740;34.694;33.088;2023-05-14T06:02:06;28.3;25.3;16.5
76043;PMS7003;64740;34.694;33.088;2023-05-14T06:07:08;26.8;24.1;15.5
76043;PMS7003;64740;34.694;33.088;2023-05-14T06:11:34;28.7;25.8;16.3
76043;PMS7003;64740;34.694;33.088;2023-05-14T06:17:08;30.4;26.9;17.2
76043;PMS7003;64740;34.694;33.088;2023-05-14T06:21:44;29.5;26.4;17.3
76043;PMS7003;64740;34.694;33.088;2023-05-14T06:26:24;29.9;26.7;18
76043;PMS7003;64740;34.694;33.088;2023-05-14T06:31:48;31.7;27.8;18.4
76043;PMS7003;64740;34.694;33.088;2023-05-14T06:37:08;33;28.8;18.7
76043;PMS7003;64740;34.694;33.088;2023-05-14T06:41:44;33;29.1;18.4
76043;PMS7003;64740;34.694;33.088;2023-05-14T06:46:36;30.4;27.6;18.5
76043;PMS7003;64740;34.694;33.088;2023-05-14T06:52:08;32.7;29.1;18.8
76043;PMS7003;64740;34.694;33.088;2023-05-14T06:56:24;31.2;28.6;18.6
76043;PMS7003;64740;34.694;33.088;2023-05-14T07:01:44;32.1;29.6;19.1
76043;PMS7003;64740;34.694;33.088;2023-05-14T07:06:54;26.3;24;15.8
76043;PMS7003;64740;34.694;33.088;2023-05-14T07:12:08;23.7;20.4;14
76043;PMS7003;64740;34.694;33.088;2023-05-14T07:16:54;23.1;21.1;14.2
76043;PMS7003;64740;34.694;33.088;2023-05-14T09:51:42;21.2;19.1;13
76043;PMS7003;64740;34.694;33.088;2023-05-14T09:57:08;16.2;14.3;10.1
76043;PMS7003;64740;34.694;33.088;2023-05-14T10:01:32;16.4;14.7;9.9
76043;PMS7003;64740;34.694;33.088;2023-05-14T10:06:44;17.5;15.7;10.9
76043;PMS7003;64740;34.694;33.088;2023-05-14T10:11:44;17.2;15.7;11
76043;PMS7003;64740;34.694;33.088;2023-05-14T10:17:06;18.1;15.8;11.5
76043;PMS7003;64740;34.694;33.088;2023-05-14T10:21:55;17.7;15.6;11
76043;PMS7003;64740;34.694;33.088;2023-05-14T10:26:24;15.7;14.8;10.4
76043;PMS7003;64740;34.694;33.088;2023-05-14T10:31:48;16.3;14.2;10.3
76043;PMS7003;64740;34.694;33.088;2023-05-14T10:36:58;15.8;13.5;9.1
76043;PMS7003;64740;34.694;33.088;2023-05-14T10:41:24;16.4;14.2;9.9
76043;PMS7003;64740;34.694;33.088;2023-05-14T10:46:48;17.4;14.8;10.5
76043;PMS7003;64740;34.694;33.088;2023-05-14T10:51:46;16.3;14.7;10.5
76043;PMS7003;64740;34.694;33.088;2023-05-14T10:56:24;16.9;14.7;10.2
76043;PMS7003;64740;34.694;33.088;2023-05-14T11:02:17;16.5;14.5;10.5
76043;PMS7003;64740;34.694;33.088;2023-05-14T11:07:08;15.7;14.8;10.4
76043;PMS7003;64740;34.694;33.088;2023-05-14T11:11:24;14.2;13.1;9.6
76043;PMS7003;64740;34.694;33.088;2023-05-14T11:16:58;18;16.3;11.5
76043;PMS7003;64740;34.694;33.088;2023-05-14T11:21:44;16.1;14.9;10.9
76043;PMS7003;64740;34.694;33.088;2023-05-14T11:26:36;15;13.5;9.4
76043;PMS7003;64740;34.694;33.088;2023-05-14T11:31:50;14.7;13.2;9.5
76043;PMS7003;64740;34.694;33.088;2023-05-14T11:37:08;16.4;14.6;10.3
76043;PMS7003;64740;34.694;33.088;2023-05-14T11:41:24;16;14.5;10.3
76043;PMS7003;64740;34.694;33.088;2023-05-14T11:47:08;14.2;12.9;9.8
76043;PMS7003;64740;34.694;33.088;2023-05-14T11:52:08;15.4;13.2;9.2
76043;PMS7003;64740;34.694;33.088;2023-05-14T11:56:58;13.6;12.1;8.2
76043;PMS7003;64740;34.694;33.088;2023-05-14T12:01:44;14;11.8;8.5
76043;PMS7003;64740;34.694;33.088;2023-05-14T12:06:56;15.5;13.3;9.1
76043;PMS7003;64740;34.694;33.088;2023-05-14T12:12:06;14.2;12.8;8.6
76043;PMS7003;64740;34.694;33.088;2023-05-14T12:16:46;15.7;13.9;10
76043;PMS7003;64740;34.694;33.088;2023-05-14T12:21:25;14.5;13.2;9.6
76043;PMS7003;64740;34.694;33.088;2023-05-14T12:27:08;14.4;13.5;9.5
76043;PMS7003;64740;34.694;33.088;2023-05-14T12:31:58;11.9;10.3;7.3
76043;PMS7003;64740;34.694;33.088;2023-05-14T12:36:36;14.7;12.5;8.8
76043;PMS7003;64740;34.694;33.088;2023-05-14T12:41:36;15.6;12.8;9.2
76043;PMS7003;64740;34.694;33.088;2023-05-14T12:46:54;13;11.3;8
76043;PMS7003;64740;34.694;33.088;2023-05-14T12:51:24;14.5;13.3;9.7
76043;PMS7003;64740;34.694;33.088;2023-05-14T12:56:58;14.2;12.1;9
76043;PMS7003;64740;34.694;33.088;2023-05-14T13:01:58;14;13.2;9.2
76043;PMS7003;64740;34.694;33.088;2023-05-14T13:06:58;13.8;11.8;8.7
76043;PMS7003;64740;34.694;33.088;2023-05-14T13:12:08;15.9;13.8;9.7
76043;PMS7003;64740;34.694;33.088;2023-05-14T13:16:42;13.8;12;8.1
76043;PMS7003;64740;34.694;33.088;2023-05-14T13:21:36;16.5;14.7;10.3
76043;PMS7003;64740;34.694;33.088;2023-05-14T13:26:54;15.2;13.6;10
76043;PMS7003;64740;34.694;33.088;2023-05-14T13:31:44;15;12.7;9.2
76043;PMS7003;64740;34.694;33.088;2023-05-14T13:36:48;15.4;13;9.4
76043;PMS7003;64740;34.694;33.088;2023-05-14T13:41:54;15.1;13.1;9.1
76043;PMS7003;64740;34.694;33.088;2023-05-14T13:46:36;14;12.6;8.8
76043;PMS7003;64740;34.694;33.088;2023-05-14T13:51:24;13.8;13;9.3
76043;PMS7003;64740;34.694;33.088;2023-05-14T13:56:42;13.2;12.6;9
76043;PMS7003;64740;34.694;33.088;2023-05-14T14:01:32;15.8;14.5;10.5
76043;PMS7003;64740;34.694;33.088;2023-05-14T14:07:06;16.6;15.2;10.7
76043;PMS7003;64740;34.694;33.088;2023-05-14T14:11:56;15.6;13.6;10.1
76043;PMS7003;64740;34.694;33.088;2023-05-14T14:16:36;14.7;13.1;9.4
76043;PMS7003;64740;34.694;33.088;2023-05-14T14:22:08;15;13.2;9.6
76043;PMS7003;64740;34.694;33.088;2023-05-14T14:26:44;15.4;13.7;9.7
76043;PMS7003;64740;34.694;33.088;2023-05-14T14:31:24;13.6;12.6;9.4
76043;PMS7003;64740;34.694;33.088;2023-05-14T14:36:56;15.8;13.1;9.5
76043;PMS7003;64740;34.694;33.088;2023-05-14T14:42:06;13.7;12.3;9
76043;PMS7003;64740;34.694;33.088;2023-05-14T14:46:34;13.9;12;8.8
76043;PMS7003;64740;34.694;33.088;2023-05-14T14:52:04;14;11.9;8.5
76043;PMS7003;64740;34.694;33.088;2023-05-14T14:57:06;12.6;11.6;8.3
76043;PMS7003;64740;34.694;33.088;2023-05-14T15:01:56;13.3;11.9;8.5
76043;PMS7003;64740;34.694;33.088;2023-05-14T15:06:42;13.1;11.6;8.7
76043;PMS7003;64740;34.694;33.088;2023-05-14T15:11:34;13.3;12.2;8.7
76043;PMS7003;64740;34.694;33.088;2023-05-14T15:16:56;13.6;11.8;8.6
76043;PMS7003;64740;34.694;33.088;2023-05-14T15:21:52;13;11.6;8.3
76043;PMS7003;64740;34.694;33.088;2023-05-14T15:26:24;12.3;11.3;8.3
76043;PMS7003;64740;34.694;33.088;2023-05-14T15:32:06;14.3;12.9;9.5
76043;PMS7003;64740;34.694;33.088;2023-05-14T15:36:56;15.3;13.2;9.2
76043;PMS7003;64740;34.694;33.088;2023-05-14T15:41:32;12.4;11.1;8.4
76043;PMS7003;64740;34.694;33.088;2023-05-14T15:46:48;14.1;12.3;9.2
76043;PMS7003;64740;34.694;33.088;2023-05-14T15:51:54;14.1;12.9;9.1
76043;PMS7003;64740;34.694;33.088;2023-05-14T15:56:46;14.9;12.6;9.1
76043;PMS7003;64740;34.694;33.088;2023-05-14T16:02:00;15.1;14;9.3
76043;PMS7003;64740;34.694;33.088;2023-05-14T16:07:00;15.4;13.5;9.2
76043;PMS7003;64740;34.694;33.088;2023-05-14T16:11:42;14.5;12.8;9.5
76043;PMS7003;64740;34.694;33.088;2023-05-14T16:17:10;14.7;12.7;9
76043;PMS7003;64740;34.694;33.088;2023-05-14T16:22:00;15.9;14;9.9
76043;PMS7003;64740;34.694;33.088;2023-05-14T16:26:37;16.4;14.7;10.2
76043;PMS7003;64740;34.694;33.088;2023-05-14T16:31:56;15.7;14.1;10.1
76043;PMS7003;64740;34.694;33.088;2023-05-14T16:37:10;15.5;13.8;9.9
76043;PMS7003;64740;34.694;33.088;2023-05-14T16:41:36;15.2;14.3;10.1
76043;PMS7003;64740;34.694;33.088;2023-05-14T16:46:26;14.5;12.5;9.1
76043;PMS7003;64740;34.694;33.088;2023-05-14T16:51:36;15.6;14.1;9.6
76043;PMS7003;64740;34.694;33.088;2023-05-14T16:56:26;15.4;13.7;9.6
76043;PMS7003;64740;34.694;33.088;2023-05-14T17:01:44;16.4;14.1;10
76043;PMS7003;64740;34.694;33.088;2023-05-14T17:06:24;15.1;13.9;9.8
76043;PMS7003;64740;34.694;33.088;2023-05-14T17:12:06;15.8;13.8;9.6
76043;PMS7003;64740;34.694;33.088;2023-05-14T17:17:08;16.2;14.1;9.8
76043;PMS7003;64740;34.694;33.088;2023-05-14T17:21:34;15.9;15;10.6
76043;PMS7003;64740;34.694;33.088;2023-05-14T17:27:08;18.4;16;11.2
76043;PMS7003;64740;34.694;33.088;2023-05-14T17:31:24;17.8;16.5;11.5
76043;PMS7003;64740;34.694;33.088;2023-05-14T17:36:24;18;15.8;11.7
76043;PMS7003;64740;34.694;33.088;2023-05-14T17:41:48;19;17.8;12.6
76043;PMS7003;64740;34.694;33.088;2023-05-14T17:47:10;19.2;17.6;12.5
76043;PMS7003;64740;34.694;33.088;2023-05-14T17:51:24;18.9;16.9;11.6
76043;PMS7003;64740;34.694;33.088;2023-05-14T17:56:44;19;16.3;11
76043;PMS7003;64740;34.694;33.088;2023-05-14T18:02:10;16.8;15.8;10.6
76043;PMS7003;64740;34.694;33.088;2023-05-14T18:06:24;16.6;14.3;10.2
76043;PMS7003;64740;34.694;33.088;2023-05-14T18:11:44;16.5;14.2;10.1
76043;PMS7003;64740;34.694;33.088;2023-05-14T18:16:46;17.2;14.3;9.9
76043;PMS7003;64740;34.694;33.088;2023-05-14T18:22:10;16.2;14.5;10.2
76043;PMS7003;64740;34.694;33.088;2023-05-14T18:26:54;16.8;15;10.3
76043;PMS7003;64740;34.694;33.088;2023-05-14T18:31:24;16.7;15;10.5
76043;PMS7003;64740;34.694;33.088;2023-05-14T18:36:24;15.7;13.8;9.8
76043;PMS7003;64740;34.694;33.088;2023-05-14T18:41:58;16.8;14.4;10
76043;PMS7003;64740;34.694;33.088;2023-05-14T18:46:24;14.7;13.9;10
76043;PMS7003;64740;34.694;33.088;2023-05-14T18:51:48;15.6;13.8;9.5
76043;PMS7003;64740;34.694;33.088;2023-05-14T18:56:24;17.3;14.9;10.6
76043;PMS7003;64740;34.694;33.088;2023-05-14T19:01:32;20.3;18.2;12.2
76043;PMS7003;64740;34.694;33.088;2023-05-14T19:07:08;16.9;14.8;10.2
76043;PMS7003;64740;34.694;33.088;2023-05-14T19:12:00;16.8;15.1;10.6
76043;PMS7003;64740;34.694;33.088;2023-05-14T19:16:24;16.5;15;10.6
76043;PMS7003;64740;34.694;33.088;2023-05-14T19:22:10;18.2;16.1;11.2
76043;PMS7003;64740;34.694;33.088;2023-05-14T19:26:46;18.3;15.5;10.2
76043;PMS7003;64740;34.694;33.088;2023-05-14T19:31:25;16.4;15.5;11
76043;PMS7003;64740;34.694;33.088;2023-05-14T19:36:56;18.4;16.1;10.7
76043;PMS7003;64740;34.694;33.088;2023-05-14T19:42:08;19.6;17.2;11.9
76043;PMS7003;64740;34.694;33.088;2023-05-14T19:46:24;17.1;15;10.7
76043;PMS7003;64740;34.694;33.088;2023-05-14T19:52:08;17.2;15.8;11
76043;PMS7003;64740;34.694;33.088;2023-05-14T19:57:08;18;16.5;11.8
76043;PMS7003;64740;34.694;33.088;2023-05-14T20:02:00;19.2;16.9;11.2
76043;PMS7003;64740;34.694;33.088;2023-05-14T20:06:24;18.4;15.7;11.3
76043;PMS7003;64740;34.694;33.088;2023-05-14T20:11:58;18.5;16.2;11
76043;PMS7003;64740;34.694;33.088;2023-05-14T20:16:58;18;16;11.4
76043;PMS7003;64740;34.694;33.088;2023-05-14T20:21:56;18.6;17.3;12.3
76043;PMS7003;64740;34.694;33.088;2023-05-14T20:26:24;19.5;17.1;11.5
76043;PMS7003;64740;34.694;33.088;2023-05-14T20:32:08;18.1;16.3;11.3
76043;PMS7003;64740;34.694;33.088;2023-05-14T20:36:58;19.1;16.9;12
76043;PMS7003;64740;34.694;33.088;2023-05-14T20:42:10;20;17.4;12.1
76043;PMS7003;64740;34.694;33.088;2023-05-14T20:46:34;18.3;16.8;11.8
76043;PMS7003;64740;34.694;33.088;2023-05-14T20:51:56;20.2;17.5;12.4
76043;PMS7003;64740;34.694;33.088;2023-05-14T20:56:34;19.7;17.3;12.5
76043;PMS7003;64740;34.694;33.088;2023-05-14T21:01:58;20.5;18.5;12.7
76043;PMS7003;64740;34.694;33.088;2023-05-14T21:06:48;20.6;18.7;12.9
76043;PMS7003;64740;34.694;33.088;2023-05-14T21:11:36;20.3;18;12.6
76043;PMS7003;64740;34.694;33.088;2023-05-14T21:17:08;20.5;18.8;13.1
76043;PMS7003;64740;34.694;33.088;2023-05-14T21:21:24;21.1;18.4;12.9
76043;PMS7003;64740;34.694;33.088;2023-05-14T21:26:24;20.2;17.3;12.3
76043;PMS7003;64740;34.694;33.088;2023-05-14T21:31:56;19.4;17.3;12
76043;PMS7003;64740;34.694;33.088;2023-05-14T21:37:10;19.4;17.1;11.4
76043;PMS7003;64740;34.694;33.088;2023-05-14T21:41:48;17.8;16.6;11.6
76043;PMS7003;64740;34.694;33.088;2023-05-14T21:46:58;17.1;15.5;10.9
76043;PMS7003;64740;34.694;33.088;2023-05-14T21:51:56;18.3;16.2;11.4
76043;PMS7003;64740;34.694;33.088;2023-05-14T21:56:48;18.3;16.5;11.4
76043;PMS7003;64740;34.694;33.088;2023-05-14T22:01:32;18.3;16.3;11.4
76043;PMS7003;64740;34.694;33.088;2023-05-14T22:06:36;17.3;16.1;11.6
76043;PMS7003;64740;34.694;33.088;2023-05-14T22:12:08;18.6;17.1;11.9
76043;PMS7003;64740;34.694;33.088;2023-05-14T22:17:00;18.1;16.3;11.4
76043;PMS7003;64740;34.694;33.088;2023-05-14T22:21:46;18.2;17.1;12.4
76043;PMS7003;64740;34.694;33.088;2023-05-14T22:27:08;20.3;18;12.2
76043;PMS7003;64740;34.694;33.088;2023-05-14T22:31:46;20.3;18;12.5
76043;PMS7003;64740;34.694;33.088;2023-05-14T22:36:48;17.7;15.9;11.6
76043;PMS7003;64740;34.694;33.088;2023-05-14T22:41:56;16.6;15.1;10.9
76043;PMS7003;64740;34.694;33.088;2023-05-14T22:47:10;16.9;15;10.8
76043;PMS7003;64740;34.694;33.088;2023-05-14T22:51:36;15.2;13.3;9.4
76043;PMS7003;64740;34.694;33.088;2023-05-14T22:56:56;15.1;13.6;10.2
76043;PMS7003;64740;34.694;33.088;2023-05-14T23:02:10;14.7;13.8;9.9
76043;PMS7003;64740;34.694;33.088;2023-05-14T23:07:00;14.2;13;9.2
76043;PMS7003;64740;34.694;33.088;2023-05-14T23:11:36;15;13.4;9.6
76043;PMS7003;64740;34.694;33.088;2023-05-14T23:17:00;15.1;13.7;9.8
76043;PMS7003;64740;34.694;33.088;2023-05-14T23:21:58;13.7;12.4;8.6
76043;PMS7003;64740;34.694;33.088;2023-05-14T23:27:09;13.7;13;9.8
76043;PMS7003;64740;34.694;33.088;2023-05-14T23:31:49;14.2;12.5;9
76043;PMS7003;64740;34.694;33.088;2023-05-14T23:37:10;13.6;12.4;9
76043;PMS7003;64740;34.694;33.088;2023-05-14T23:41:58;13.7;11.7;8.8
76043;PMS7003;64740;34.694;33.088;2023-05-14T23:46:36;12.5;11.4;8.3
76043;PMS7003;64740;34.694;33.088;2023-05-14T23:51:48;13.2;11.6;8.3
76043;PMS7003;64740;34.694;33.088;2023-05-14T23:56:56;12.4;11.3;8.3
